sensor_id;sensor_type;location;lat;lon;timestamp;pressure;altitude;pressure_sealevel;temperature;humidity
71764;BME280;59602;52.142;5.408;2022-09-12T00:00:06;101915.06;;;14.97;83.22
71764;BME280;59602;52.142;5.408;2022-09-12T00:02:33;101912.31;;;14.97;82.90
71764;BME280;59602;52.142;5.408;2022-09-12T00:05:00;101915.84;;;14.97;82.94
71764;BME280;59602;52.142;5.408;2022-09-12T00:07:26;101917.00;;;14.96;82.68
71764;BME280;59602;52.142;5.408;2022-09-12T00:09:53;101912.69;;;14.91;82.76
71764;BME280;59602;52.142;5.408;2022-09-12T00:12:19;101907.19;;;14.88;82.78
71764;BME280;59602;52.142;5.408;2022-09-12T00:14:46;101901.31;;;14.86;82.88
71764;BME280;59602;52.142;5.408;2022-09-12T00:17:13;101894.63;;;14.83;82.91
71764;BME280;59602;52.142;5.408;2022-09-12T00:19:39;101900.13;;;14.83;82.92
71764;BME280;59602;52.142;5.408;2022-09-12T00:22:06;101895.41;;;14.84;83.11
71764;BME280;59602;52.142;5.408;2022-09-12T00:24:33;101893.88;;;14.83;83.03
71764;BME280;59602;52.142;5.408;2022-09-12T00:26:59;101895.00;;;14.82;82.62
71764;BME280;59602;52.142;5.408;2022-09-12T00:29:26;101891.09;;;14.79;82.61
71764;BME280;59602;52.142;5.408;2022-09-12T00:31:52;101891.47;;;14.78;82.44
71764;BME280;59602;52.142;5.408;2022-09-12T00:34:19;101881.66;;;14.73;82.81
71764;BME280;59602;52.142;5.408;2022-09-12T00:36:45;101883.22;;;14.70;82.93
71764;BME280;59602;52.142;5.408;2022-09-12T00:39:14;101878.91;;;14.69;82.64
71764;BME280;59602;52.142;5.408;2022-09-12T00:41:43;101889.06;;;14.69;83.10
71764;BME280;59602;52.142;5.408;2022-09-12T00:46:44;101879.25;;;14.64;82.61
71764;BME280;59602;52.142;5.408;2022-09-12T00:51:44;101878.47;;;14.60;82.24
71764;BME280;59602;52.142;5.408;2022-09-12T00:54:16;101874.16;;;14.59;82.44
71764;BME280;59602;52.142;5.408;2022-09-12T00:56:45;101875.28;;;14.55;82.44
71764;BME280;59602;52.142;5.408;2022-09-12T00:59:19;101876.81;;;14.52;82.19
71764;BME280;59602;52.142;5.408;2022-09-12T01:01:48;101876.00;;;14.48;82.31
71764;BME280;59602;52.142;5.408;2022-09-12T01:04:19;101871.31;;;14.45;82.57
71764;BME280;59602;52.142;5.408;2022-09-12T01:06:48;101872.84;;;14.42;82.92
71764;BME280;59602;52.142;5.408;2022-09-12T01:09:19;101869.72;;;14.40;82.31
71764;BME280;59602;52.142;5.408;2022-09-12T01:11:48;101871.63;;;14.36;82.14
71764;BME280;59602;52.142;5.408;2022-09-12T01:14:16;101870.03;;;14.35;82.28
71764;BME280;59602;52.142;5.408;2022-09-12T01:16:44;101869.22;;;14.31;82.22
71764;BME280;59602;52.142;5.408;2022-09-12T01:25:01;101865.72;;;14.30;82.33
71764;BME280;59602;52.142;5.408;2022-09-12T01:27:45;101865.72;;;14.30;82.27
71764;BME280;59602;52.142;5.408;2022-09-12T01:30:22;101859.06;;;14.28;82.22
71764;BME280;59602;52.142;5.408;2022-09-12T01:35:51;101854.31;;;14.18;82.29
71764;BME280;59602;52.142;5.408;2022-09-12T01:38:28;101848.44;;;14.16;82.60
71764;BME280;59602;52.142;5.408;2022-09-12T01:41:04;101849.94;;;14.13;82.71
71764;BME280;59602;52.142;5.408;2022-09-12T01:43:41;101844.88;;;14.11;82.54
71764;BME280;59602;52.142;5.408;2022-09-12T01:46:46;101842.09;;;14.08;82.42
71764;BME280;59602;52.142;5.408;2022-09-12T01:49:21;101840.91;;;14.05;82.48
71764;BME280;59602;52.142;5.408;2022-09-12T01:52:13;101834.66;;;14.05;82.62
71764;BME280;59602;52.142;5.408;2022-09-12T01:54:50;101835.81;;;14.04;82.55
71764;BME280;59602;52.142;5.408;2022-09-12T01:57:27;101835.41;;;14.02;82.30
71764;BME280;59602;52.142;5.408;2022-09-12T02:00:08;101826.78;;;14.00;82.72
71764;BME280;59602;52.142;5.408;2022-09-12T02:02:37;101829.91;;;13.98;82.46
71764;BME280;59602;52.142;5.408;2022-09-12T02:05:08;101814.66;;;13.97;82.77
71764;BME280;59602;52.142;5.408;2022-09-12T02:07:39;101817.00;;;13.95;82.47
71764;BME280;59602;52.142;5.408;2022-09-12T02:10:16;101817.78;;;13.96;82.80
71764;BME280;59602;52.142;5.408;2022-09-12T02:15:19;101810.34;;;13.93;82.45
71764;BME280;59602;52.142;5.408;2022-09-12T02:17:50;101813.84;;;13.93;82.84
71764;BME280;59602;52.142;5.408;2022-09-12T02:23:13;101820.50;;;13.92;82.75
71764;BME280;59602;52.142;5.408;2022-09-12T02:25:44;101807.19;;;13.90;82.69
71764;BME280;59602;52.142;5.408;2022-09-12T02:28:22;101810.69;;;13.87;82.65
71764;BME280;59602;52.142;5.408;2022-09-12T02:31:20;101803.25;;;13.84;82.48
71764;BME280;59602;52.142;5.408;2022-09-12T02:36:24;101802.81;;;13.79;82.27
71764;BME280;59602;52.142;5.408;2022-09-12T02:38:54;101807.09;;;13.76;82.44
71764;BME280;59602;52.142;5.408;2022-09-12T02:41:21;101803.16;;;13.77;82.73
71764;BME280;59602;52.142;5.408;2022-09-12T02:43:49;101798.50;;;13.78;82.63
71764;BME280;59602;52.142;5.408;2022-09-12T02:46:21;101800.84;;;13.79;82.77
71764;BME280;59602;52.142;5.408;2022-09-12T02:48:48;101791.88;;;13.79;82.69
71764;BME280;59602;52.142;5.408;2022-09-12T02:51:15;101792.25;;;13.77;82.68
71764;BME280;59602;52.142;5.408;2022-09-12T02:53:48;101786.00;;;13.77;82.73
71764;BME280;59602;52.142;5.408;2022-09-12T02:56:20;101786.00;;;13.77;82.81
71764;BME280;59602;52.142;5.408;2022-09-12T02:58:49;101788.31;;;13.75;83.04
71764;BME280;59602;52.142;5.408;2022-09-12T03:01:35;101788.72;;;13.73;82.51
71764;BME280;59602;52.142;5.408;2022-09-12T03:07:15;101784.34;;;13.68;82.57
71764;BME280;59602;52.142;5.408;2022-09-12T03:10:08;101772.63;;;13.64;82.58
71764;BME280;59602;52.142;5.408;2022-09-12T03:12:52;101777.69;;;13.62;82.58
71764;BME280;59602;52.142;5.408;2022-09-12T03:18:31;101762.84;;;13.63;82.75
71764;BME280;59602;52.142;5.408;2022-09-12T03:21:12;101767.16;;;13.64;83.10
71764;BME280;59602;52.142;5.408;2022-09-12T03:23:59;101774.19;;;13.65;82.95
71764;BME280;59602;52.142;5.408;2022-09-12T03:29:02;101773.78;;;13.63;83.23
71764;BME280;59602;52.142;5.408;2022-09-12T03:31:31;101774.94;;;13.62;82.90
71764;BME280;59602;52.142;5.408;2022-09-12T03:33:59;101774.53;;;13.60;82.93
71764;BME280;59602;52.142;5.408;2022-09-12T03:36:27;101770.22;;;13.59;82.97
71764;BME280;59602;52.142;5.408;2022-09-12T03:38:55;101765.94;;;13.58;82.64
71764;BME280;59602;52.142;5.408;2022-09-12T03:41:21;101764.75;;;13.56;83.11
71764;BME280;59602;52.142;5.408;2022-09-12T03:43:48;101770.94;;;13.53;82.98
71764;BME280;59602;52.142;5.408;2022-09-12T03:46:15;101767.44;;;13.52;82.69
71764;BME280;59602;52.142;5.408;2022-09-12T03:48:41;101766.66;;;13.52;82.72
71764;BME280;59602;52.142;5.408;2022-09-12T03:51:09;101758.44;;;13.52;83.09
71764;BME280;59602;52.142;5.408;2022-09-12T03:53:36;101759.59;;;13.50;82.92
71764;BME280;59602;52.142;5.408;2022-09-12T03:56:24;101761.16;;;13.48;82.90
71764;BME280;59602;52.142;5.408;2022-09-12T03:58:51;101756.84;;;13.47;83.00
71764;BME280;59602;52.142;5.408;2022-09-12T04:01:18;101748.28;;;13.48;82.95
71764;BME280;59602;52.142;5.408;2022-09-12T04:03:48;101749.06;;;13.49;82.93
71764;BME280;59602;52.142;5.408;2022-09-12T04:06:21;101751.81;;;13.49;82.84
71764;BME280;59602;52.142;5.408;2022-09-12T04:08:50;101741.25;;;13.47;82.92
71764;BME280;59602;52.142;5.408;2022-09-12T04:11:18;101740.06;;;13.45;83.08
71764;BME280;59602;52.142;5.408;2022-09-12T04:13:47;101744.31;;;13.42;82.81
71764;BME280;59602;52.142;5.408;2022-09-12T04:16:15;101750.56;;;13.43;83.48
71764;BME280;59602;52.142;5.408;2022-09-12T04:18:42;101743.56;;;13.45;83.28
71764;BME280;59602;52.142;5.408;2022-09-12T04:21:12;101749.81;;;13.46;83.30
71764;BME280;59602;52.142;5.408;2022-09-12T04:23:41;101748.63;;;13.43;83.37
71764;BME280;59602;52.142;5.408;2022-09-12T04:26:09;101747.06;;;13.42;83.43
71764;BME280;59602;52.142;5.408;2022-09-12T04:28:38;101746.28;;;13.42;83.50
71764;BME280;59602;52.142;5.408;2022-09-12T04:31:09;101743.13;;;13.40;83.43
71764;BME280;59602;52.142;5.408;2022-09-12T04:33:39;101740.41;;;13.40;83.63
71764;BME280;59602;52.142;5.408;2022-09-12T04:36:08;101745.47;;;13.41;83.74
71764;BME280;59602;52.142;5.408;2022-09-12T04:38:36;101747.78;;;13.39;83.40
71764;BME280;59602;52.142;5.408;2022-09-12T04:41:12;101743.91;;;13.40;83.81
71764;BME280;59602;52.142;5.408;2022-09-12T04:43:39;101747.84;;;13.43;84.17
71764;BME280;59602;52.142;5.408;2022-09-12T04:46:07;101743.16;;;13.43;84.13
71764;BME280;59602;52.142;5.408;2022-09-12T04:48:35;101743.94;;;13.44;83.61
71764;BME280;59602;52.142;5.408;2022-09-12T04:53:35;101746.28;;;13.45;83.48
71764;BME280;59602;52.142;5.408;2022-09-12T04:56:03;101749.81;;;13.46;84.00
71764;BME280;59602;52.142;5.408;2022-09-12T04:58:32;101746.28;;;13.45;83.92
71764;BME280;59602;52.142;5.408;2022-09-12T05:01:19;101744.34;;;13.46;84.11
71764;BME280;59602;52.142;5.408;2022-09-12T05:03:47;101743.56;;;13.45;84.07
71764;BME280;59602;52.142;5.408;2022-09-12T05:06:17;101743.97;;;13.47;84.46
71764;BME280;59602;52.142;5.408;2022-09-12T05:08:44;101740.47;;;13.50;84.31
71764;BME280;59602;52.142;5.408;2022-09-12T05:11:14;101742.44;;;13.50;84.39
71764;BME280;59602;52.142;5.408;2022-09-12T05:13:42;101742.47;;;13.54;84.34
71764;BME280;59602;52.142;5.408;2022-09-12T05:16:10;101733.91;;;13.55;84.53
71764;BME280;59602;52.142;5.408;2022-09-12T05:18:38;101736.25;;;13.57;84.85
71764;BME280;59602;52.142;5.408;2022-09-12T05:21:06;101737.81;;;13.58;84.46
71764;BME280;59602;52.142;5.408;2022-09-12T05:23:34;101746.81;;;13.58;84.50
71764;BME280;59602;52.142;5.408;2022-09-12T05:26:03;101736.28;;;13.60;84.82
71764;BME280;59602;52.142;5.408;2022-09-12T05:28:32;101745.25;;;13.61;84.58
71764;BME280;59602;52.142;5.408;2022-09-12T05:31:07;101746.03;;;13.61;84.67
71764;BME280;59602;52.142;5.408;2022-09-12T05:33:47;101737.47;;;13.63;84.50
71764;BME280;59602;52.142;5.408;2022-09-12T05:36:37;101732.38;;;13.61;84.55
71764;BME280;59602;52.142;5.408;2022-09-12T05:39:03;101730.81;;;13.64;85.16
71764;BME280;59602;52.142;5.408;2022-09-12T05:41:31;101730.47;;;13.65;84.96
71764;BME280;59602;52.142;5.408;2022-09-12T05:44:01;101727.72;;;13.65;84.81
71764;BME280;59602;52.142;5.408;2022-09-12T05:46:37;101739.06;;;13.67;84.93
71764;BME280;59602;52.142;5.408;2022-09-12T05:52:28;101730.09;;;13.67;84.64
71764;BME280;59602;52.142;5.408;2022-09-12T05:55:15;101725.41;;;13.67;85.24
71764;BME280;59602;52.142;5.408;2022-09-12T05:57:47;101726.22;;;13.72;85.54
71764;BME280;59602;52.142;5.408;2022-09-12T06:00:51;101736.78;;;13.73;84.95
71764;BME280;59602;52.142;5.408;2022-09-12T06:03:55;101728.53;;;13.69;85.22
71764;BME280;59602;52.142;5.408;2022-09-12T06:13:31;101731.28;;;13.69;85.12
71764;BME280;59602;52.142;5.408;2022-09-12T06:20:06;101733.66;;;13.75;85.15
71764;BME280;59602;52.142;5.408;2022-09-12T06:23:23;101739.91;;;13.75;84.94
71764;BME280;59602;52.142;5.408;2022-09-12T06:26:06;101737.19;;;13.79;85.06
71764;BME280;59602;52.142;5.408;2022-09-12T06:31:46;101737.97;;;13.79;85.58
71764;BME280;59602;52.142;5.408;2022-09-12T06:34:14;101742.31;;;13.84;85.51
71764;BME280;59602;52.142;5.408;2022-09-12T06:37:00;101742.72;;;13.86;85.35
71764;BME280;59602;52.142;5.408;2022-09-12T06:39:45;101737.66;;;13.88;85.02
71764;BME280;59602;52.142;5.408;2022-09-12T06:42:14;101734.19;;;13.95;85.20
71764;BME280;59602;52.142;5.408;2022-09-12T06:44:59;101727.59;;;14.03;85.03
71764;BME280;59602;52.142;5.408;2022-09-12T06:47:26;101719.41;;;14.06;84.98
71764;BME280;59602;52.142;5.408;2022-09-12T06:49:56;101721.75;;;14.08;84.99
71764;BME280;59602;52.142;5.408;2022-09-12T06:52:44;101721.03;;;14.11;85.38
71764;BME280;59602;52.142;5.408;2022-09-12T06:55:46;101720.31;;;14.25;85.50
71764;BME280;59602;52.142;5.408;2022-09-12T07:16:51;101716.75;;;15.41;84.12
71764;BME280;59602;52.142;5.408;2022-09-12T07:19:17;101715.56;;;15.49;83.88
71764;BME280;59602;52.142;5.408;2022-09-12T07:21:44;101716.75;;;15.51;83.96
71764;BME280;59602;52.142;5.408;2022-09-12T07:24:10;101716.34;;;15.49;84.25
71764;BME280;59602;52.142;5.408;2022-09-12T07:26:38;101719.09;;;15.49;84.37
71764;BME280;59602;52.142;5.408;2022-09-12T07:29:12;101726.16;;;15.54;84.54
71764;BME280;59602;52.142;5.408;2022-09-12T07:31:59;101713.63;;;15.67;84.95
71764;BME280;59602;52.142;5.408;2022-09-12T07:34:27;101718.34;;;15.81;84.62
71764;BME280;59602;52.142;5.408;2022-09-12T07:36:53;101722.22;;;15.91;84.28
71764;BME280;59602;52.142;5.408;2022-09-12T07:39:20;101718.31;;;15.95;84.50
71764;BME280;59602;52.142;5.408;2022-09-12T07:41:46;101706.53;;;16.02;84.36
71764;BME280;59602;52.142;5.408;2022-09-12T07:44:13;101712.03;;;16.06;84.23
71764;BME280;59602;52.142;5.408;2022-09-12T07:46:40;101720.63;;;16.11;84.45
71764;BME280;59602;52.142;5.408;2022-09-12T07:49:06;101716.69;;;16.16;84.78
71764;BME280;59602;52.142;5.408;2022-09-12T07:51:33;101715.88;;;16.23;84.09
71764;BME280;59602;52.142;5.408;2022-09-12T07:54:00;101716.25;;;16.32;84.14
71764;BME280;59602;52.142;5.408;2022-09-12T07:56:26;101713.88;;;16.37;84.06
71764;BME280;59602;52.142;5.408;2022-09-12T07:58:57;101716.59;;;16.45;83.69
71764;BME280;59602;52.142;5.408;2022-09-12T08:01:24;101712.69;;;16.46;83.95
71764;BME280;59602;52.142;5.408;2022-09-12T08:03:54;101723.28;;;16.44;82.97
71764;BME280;59602;52.142;5.408;2022-09-12T08:06:22;101725.22;;;16.43;83.88
71764;BME280;59602;52.142;5.408;2022-09-12T08:08:51;101720.09;;;16.49;84.21
71764;BME280;59602;52.142;5.408;2022-09-12T08:11:19;101716.56;;;16.55;82.66
71764;BME280;59602;52.142;5.408;2022-09-12T08:13:46;101723.97;;;16.62;82.84
71764;BME280;59602;52.142;5.408;2022-09-12T08:16:21;101718.09;;;16.60;82.72
71764;BME280;59602;52.142;5.408;2022-09-12T08:18:49;101717.69;;;16.65;82.60
71764;BME280;59602;52.142;5.408;2022-09-12T08:21:19;101722.78;;;16.70;83.61
71764;BME280;59602;52.142;5.408;2022-09-12T08:23:50;101723.50;;;16.74;83.21
71764;BME280;59602;52.142;5.408;2022-09-12T08:26:17;101729.00;;;16.78;83.14
71764;BME280;59602;52.142;5.408;2022-09-12T08:28:44;101725.84;;;16.83;83.37
71764;BME280;59602;52.142;5.408;2022-09-12T08:31:13;101721.91;;;16.88;82.68
71764;BME280;59602;52.142;5.408;2022-09-12T08:33:40;101727.38;;;16.91;82.83
71764;BME280;59602;52.142;5.408;2022-09-12T08:36:10;101720.31;;;16.94;83.01
71764;BME280;59602;52.142;5.408;2022-09-12T08:38:40;101721.84;;;16.98;82.85
71764;BME280;59602;52.142;5.408;2022-09-12T08:43:51;101724.53;;;17.06;82.36
71764;BME280;59602;52.142;5.408;2022-09-12T08:46:31;101719.81;;;17.10;82.53
71764;BME280;59602;52.142;5.408;2022-09-12T08:49:02;101728.44;;;17.12;82.08
71764;BME280;59602;52.142;5.408;2022-09-12T08:51:32;101728.03;;;17.17;81.91
71764;BME280;59602;52.142;5.408;2022-09-12T08:54:01;101726.81;;;17.21;81.83
71764;BME280;59602;52.142;5.408;2022-09-12T08:56:33;101722.47;;;17.24;81.87
71764;BME280;59602;52.142;5.408;2022-09-12T08:59:01;101721.25;;;17.29;82.66
71764;BME280;59602;52.142;5.408;2022-09-12T09:01:30;101714.16;;;17.31;82.68
71764;BME280;59602;52.142;5.408;2022-09-12T09:04:07;101712.94;;;17.36;82.64
71764;BME280;59602;52.142;5.408;2022-09-12T09:07:00;101716.06;;;17.41;82.47
71764;BME280;59602;52.142;5.408;2022-09-12T09:09:48;101713.28;;;17.45;81.96
71764;BME280;59602;52.142;5.408;2022-09-12T09:15:13;101699.06;;;17.54;81.33
71764;BME280;59602;52.142;5.408;2022-09-12T09:18:19;101703.34;;;17.58;81.87
71764;BME280;59602;52.142;5.408;2022-09-12T09:24:46;101698.88;;;17.75;80.45
71764;BME280;59602;52.142;5.408;2022-09-12T09:27:28;101694.47;;;17.85;80.69
71764;BME280;59602;52.142;5.408;2022-09-12T09:30:21;101699.88;;;17.92;80.69
71764;BME280;59602;52.142;5.408;2022-09-12T09:42:17;101701.28;;;18.11;80.28
71764;BME280;59602;52.142;5.408;2022-09-12T09:44:49;101700.44;;;18.14;79.39
71764;BME280;59602;52.142;5.408;2022-09-12T09:47:18;101697.22;;;18.19;79.96
71764;BME280;59602;52.142;5.408;2022-09-12T09:49:45;101696.38;;;18.26;79.34
71764;BME280;59602;52.142;5.408;2022-09-12T09:52:23;101690.78;;;18.33;78.56
71764;BME280;59602;52.142;5.408;2022-09-12T09:55:15;101692.25;;;18.41;78.98
71764;BME280;59602;52.142;5.408;2022-09-12T09:57:48;101684.31;;;18.47;78.18
71764;BME280;59602;52.142;5.408;2022-09-12T10:00:58;101684.25;;;18.51;79.02
71764;BME280;59602;52.142;5.408;2022-09-12T10:03:30;101677.94;;;18.54;78.25
71764;BME280;59602;52.142;5.408;2022-09-12T10:07:39;101677.88;;;18.57;78.02
71764;BME280;59602;52.142;5.408;2022-09-12T10:10:14;101682.47;;;18.67;77.86
71764;BME280;59602;52.142;5.408;2022-09-12T10:12:40;101678.03;;;18.77;78.17
71764;BME280;59602;52.142;5.408;2022-09-12T10:17:53;101664.81;;;18.92;76.47
71764;BME280;59602;52.142;5.408;2022-09-12T10:20:31;101658.44;;;18.99;75.89
71764;BME280;59602;52.142;5.408;2022-09-12T10:23:18;101657.91;;;19.07;76.47
71764;BME280;59602;52.142;5.408;2022-09-12T10:26:16;101649.59;;;19.11;76.20
71764;BME280;59602;52.142;5.408;2022-09-12T10:28:51;101655.69;;;19.22;75.72
71764;BME280;59602;52.142;5.408;2022-09-12T10:31:26;101657.97;;;19.27;76.89
71764;BME280;59602;52.142;5.408;2022-09-12T10:34:19;101642.50;;;19.34;77.14
71764;BME280;59602;52.142;5.408;2022-09-12T10:37:22;101646.41;;;19.36;75.95
71764;BME280;59602;52.142;5.408;2022-09-12T10:46:22;101630.00;;;19.49;74.74
71764;BME280;59602;52.142;5.408;2022-09-12T10:49:44;101625.50;;;19.59;74.46
71764;BME280;59602;52.142;5.408;2022-09-12T11:06:09;101615.34;;;19.96;72.71
71764;BME280;59602;52.142;5.408;2022-09-12T11:09:04;101624.28;;;20.03;72.52
71764;BME280;59602;52.142;5.408;2022-09-12T11:11:57;101616.19;;;20.13;72.17
71764;BME280;59602;52.142;5.408;2022-09-12T11:26:56;101606.59;;;20.53;68.66
71764;BME280;59602;52.142;5.408;2022-09-12T11:37:04;101620.72;;;20.59;68.51
71764;BME280;59602;52.142;5.408;2022-09-12T11:46:56;101613.13;;;20.63;68.18
71764;BME280;59602;52.142;5.408;2022-09-12T11:49:56;101608.63;;;20.69;67.75
71764;BME280;59602;52.142;5.408;2022-09-12T11:52:36;101602.69;;;20.71;67.02
71764;BME280;59602;52.142;5.408;2022-09-12T12:01:22;101602.59;;;20.75;66.93
71764;BME280;59602;52.142;5.408;2022-09-12T12:09:13;101590.00;;;20.90;65.87
71764;BME280;59602;52.142;5.408;2022-09-12T12:11:49;101583.16;;;20.94;66.48
71764;BME280;59602;52.142;5.408;2022-09-12T12:18:53;101577.88;;;21.00;65.57
71764;BME280;59602;52.142;5.408;2022-09-12T12:35:39;101579.00;;;21.19;65.98
71764;BME280;59602;52.142;5.408;2022-09-12T12:43:43;101570.09;;;21.11;63.44
71764;BME280;59602;52.142;5.408;2022-09-12T12:46:13;101569.66;;;21.13;64.67
71764;BME280;59602;52.142;5.408;2022-09-12T12:49:16;101568.69;;;21.20;65.03
71764;BME280;59602;52.142;5.408;2022-09-12T12:51:55;101557.09;;;21.25;64.98
71764;BME280;59602;52.142;5.408;2022-09-12T12:57:02;101549.38;;;21.32;62.77
71764;BME280;59602;52.142;5.408;2022-09-12T12:59:30;101546.16;;;21.34;63.19
71764;BME280;59602;52.142;5.408;2022-09-12T13:01:58;101544.50;;;21.36;61.54
71764;BME280;59602;52.142;5.408;2022-09-12T13:04:28;101546.09;;;21.38;61.17
71764;BME280;59602;52.142;5.408;2022-09-12T13:06:59;101542.47;;;21.41;61.00
71764;BME280;59602;52.142;5.408;2022-09-12T13:09:37;101539.59;;;21.44;61.03
71764;BME280;59602;52.142;5.408;2022-09-12T13:12:07;101546.94;;;21.51;61.42
71764;BME280;59602;52.142;5.408;2022-09-12T13:14:49;101532.31;;;21.50;63.13
71764;BME280;59602;52.142;5.408;2022-09-12T13:19:48;101517.50;;;21.57;61.48
71764;BME280;59602;52.142;5.408;2022-09-12T13:22:41;101513.09;;;21.60;61.31
71764;BME280;59602;52.142;5.408;2022-09-12T13:25:23;101507.88;;;21.62;61.30
71764;BME280;59602;52.142;5.408;2022-09-12T13:28:02;101512.19;;;21.63;61.48
71764;BME280;59602;52.142;5.408;2022-09-12T13:30:31;101507.34;;;21.67;61.24
71764;BME280;59602;52.142;5.408;2022-09-12T13:33:08;101496.94;;;21.71;62.33
71764;BME280;59602;52.142;5.408;2022-09-12T13:40:52;101499.50;;;21.78;62.50
71764;BME280;59602;52.142;5.408;2022-09-12T13:43:38;101502.34;;;21.74;60.38
71764;BME280;59602;52.142;5.408;2022-09-12T13:46:07;101492.50;;;21.73;61.41
71764;BME280;59602;52.142;5.408;2022-09-12T13:48:34;101493.75;;;21.72;62.12
71764;BME280;59602;52.142;5.408;2022-09-12T13:51:02;101498.81;;;21.74;61.29
71764;BME280;59602;52.142;5.408;2022-09-12T13:53:43;101501.16;;;21.75;62.05
71764;BME280;59602;52.142;5.408;2022-09-12T13:56:16;101491.75;;;21.73;60.37
71764;BME280;59602;52.142;5.408;2022-09-12T13:58:54;101499.91;;;21.76;60.58
71764;BME280;59602;52.142;5.408;2022-09-12T14:04:46;101486.00;;;21.93;58.88
71764;BME280;59602;52.142;5.408;2022-09-12T14:17:33;101479.22;;;22.20;58.23
71764;BME280;59602;52.142;5.408;2022-09-12T14:20:28;101474.47;;;22.20;59.88
71764;BME280;59602;52.142;5.408;2022-09-12T14:23:42;101474.47;;;22.20;59.61
71764;BME280;59602;52.142;5.408;2022-09-12T14:42:29;101432.91;;;22.20;59.72
71764;BME280;59602;52.142;5.408;2022-09-12T14:51:32;101427.72;;;22.35;60.00
71764;BME280;59602;52.142;5.408;2022-09-12T14:54:00;101430.66;;;22.41;59.08
71764;BME280;59602;52.142;5.408;2022-09-12T14:56:52;101427.47;;;22.42;58.24
71764;BME280;59602;52.142;5.408;2022-09-12T15:02:42;101424.28;;;22.31;58.12
71764;BME280;59602;52.142;5.408;2022-09-12T15:05:26;101414.88;;;22.28;59.13
71764;BME280;59602;52.142;5.408;2022-09-12T15:10:30;101412.97;;;22.25;59.89
71764;BME280;59602;52.142;5.408;2022-09-12T15:15:44;101414.72;;;22.19;59.04
71764;BME280;59602;52.142;5.408;2022-09-12T15:18:12;101419.50;;;22.18;60.06
71764;BME280;59602;52.142;5.408;2022-09-12T15:20:42;101423.03;;;22.19;60.43
71764;BME280;59602;52.142;5.408;2022-09-12T15:23:18;101417.19;;;22.17;60.59
71764;BME280;59602;52.142;5.408;2022-09-12T15:25:46;101416.19;;;22.11;60.33
71764;BME280;59602;52.142;5.408;2022-09-12T15:28:18;101414.75;;;22.06;60.78
71764;BME280;59602;52.142;5.408;2022-09-12T15:30:46;101407.31;;;22.03;60.59
71764;BME280;59602;52.142;5.408;2022-09-12T15:33:17;101406.13;;;22.04;59.44
71764;BME280;59602;52.142;5.408;2022-09-12T15:35:44;101404.88;;;22.05;60.63
71764;BME280;59602;52.142;5.408;2022-09-12T15:38:11;101409.66;;;22.05;60.28
71764;BME280;59602;52.142;5.408;2022-09-12T15:40:38;101402.59;;;22.04;60.08
71764;BME280;59602;52.142;5.408;2022-09-12T15:43:06;101402.25;;;22.02;60.43
71764;BME280;59602;52.142;5.408;2022-09-12T15:45:33;101398.69;;;22.01;60.30
71764;BME280;59602;52.142;5.408;2022-09-12T15:48:00;101392.50;;;21.97;60.00
71764;BME280;59602;52.142;5.408;2022-09-12T15:50:29;101407.13;;;21.97;62.02
71764;BME280;59602;52.142;5.408;2022-09-12T15:52:56;101393.16;;;22.01;62.06
71764;BME280;59602;52.142;5.408;2022-09-12T15:55:26;101384.72;;;22.05;61.41
71764;BME280;59602;52.142;5.408;2022-09-12T15:57:54;101381.84;;;22.08;60.91
71764;BME280;59602;52.142;5.408;2022-09-12T16:00:21;101377.53;;;22.07;61.15
71764;BME280;59602;52.142;5.408;2022-09-12T16:02:50;101378.28;;;22.08;60.58
71764;BME280;59602;52.142;5.408;2022-09-12T16:05:23;101376.75;;;22.07;60.90
71764;BME280;59602;52.142;5.408;2022-09-12T16:07:51;101372.88;;;22.04;62.88
71764;BME280;59602;52.142;5.408;2022-09-12T16:10:35;101370.34;;;21.97;63.54
71764;BME280;59602;52.142;5.408;2022-09-12T16:13:01;101366.13;;;21.92;60.91
71764;BME280;59602;52.142;5.408;2022-09-12T16:15:29;101368.13;;;21.92;60.88
71764;BME280;59602;52.142;5.408;2022-09-12T16:17:56;101369.78;;;21.89;60.67
71764;BME280;59602;52.142;5.408;2022-09-12T16:20:22;101363.16;;;21.87;60.81
71764;BME280;59602;52.142;5.408;2022-09-12T16:22:49;101351.41;;;21.83;62.18
71764;BME280;59602;52.142;5.408;2022-09-12T16:25:16;101356.75;;;21.77;62.51
71764;BME280;59602;52.142;5.408;2022-09-12T16:27:43;101356.88;;;21.73;62.47
71764;BME280;59602;52.142;5.408;2022-09-12T16:30:10;101361.72;;;21.69;61.58
71764;BME280;59602;52.142;5.408;2022-09-12T16:32:38;101354.75;;;21.65;61.51
71764;BME280;59602;52.142;5.408;2022-09-12T16:35:05;101355.66;;;21.62;59.86
71764;BME280;59602;52.142;5.408;2022-09-12T16:37:34;101353.00;;;21.58;63.45
71764;BME280;59602;52.142;5.408;2022-09-12T16:40:01;101348.03;;;21.53;64.00
71764;BME280;59602;52.142;5.408;2022-09-12T16:42:30;101351.66;;;21.50;63.68
71764;BME280;59602;52.142;5.408;2022-09-12T16:44:56;101351.03;;;21.46;63.93
71764;BME280;59602;52.142;5.408;2022-09-12T16:47:23;101359.41;;;21.42;65.17
71764;BME280;59602;52.142;5.408;2022-09-12T16:49:49;101352.75;;;21.40;65.21
71764;BME280;59602;52.142;5.408;2022-09-12T16:52:17;101352.84;;;21.36;65.95
71764;BME280;59602;52.142;5.408;2022-09-12T16:54:44;101341.56;;;21.30;65.96
71764;BME280;59602;52.142;5.408;2022-09-12T16:57:12;101346.44;;;21.26;65.87
71764;BME280;59602;52.142;5.408;2022-09-12T16:59:38;101341.00;;;21.23;66.62
71764;BME280;59602;52.142;5.408;2022-09-12T17:02:05;101335.25;;;21.17;67.03
71764;BME280;59602;52.142;5.408;2022-09-12T17:04:32;101320.41;;;21.11;66.06
71764;BME280;59602;52.142;5.408;2022-09-12T17:06:59;101317.75;;;21.07;65.82
71764;BME280;59602;52.142;5.408;2022-09-12T17:09:26;101312.00;;;21.02;65.39
71764;BME280;59602;52.142;5.408;2022-09-12T17:11:53;101312.56;;;20.97;67.14